Time,TemperatureF,DewpointF,PressureIn,WindDirection,WindDirectionDegrees,WindSpeedMPH,WindSpeedGustMPH,Humidity,HourlyPrecipIn,Conditions,Clouds,dailyrainin,SoftwareType,DateUTC
2013-06-13 00:02:00,70.0,55.0,29.70,NE,38,1.0,10.0,59,0.00,,,0.00,,2013-06-13 05:02:00,
2013-06-13 00:12:00,70.0,55.0,29.70,NE,38,1.0,10.0,59,0.00,,,0.00,,2013-06-13 05:12:00,
2013-06-13 00:24:00,70.0,55.0,29.70,NE,38,1.0,10.0,59,0.00,,,0.00,,2013-06-13 05:24:00,
2013-06-13 00:33:00,70.0,55.0,29.70,NE,38,1.0,10.0,59,0.00,,,0.00,,2013-06-13 05:33:00,
2013-06-13 00:53:00,68.0,56.0,29.70,SSW,212,1.0,8.0,66,0.00,,,0.00,,2013-06-13 05:53:00,
2013-06-13 01:02:00,68.0,56.0,29.70,SSW,212,1.0,8.0,66,0.00,,,0.00,,2013-06-13 06:02:00,
2013-06-13 01:11:00,68.0,56.0,29.70,SSW,212,1.0,8.0,66,0.00,,,0.00,,2013-06-13 06:11:00,
2013-06-13 01:22:00,67.0,56.0,29.72,WSW,240,3.0,13.0,68,0.00,,,0.00,,2013-06-13 06:22:00,
2013-06-13 01:33:00,67.0,56.0,29.72,WSW,240,3.0,13.0,68,0.00,,,0.00,,2013-06-13 06:33:00,
2013-06-13 01:44:00,67.0,56.0,29.72,WSW,240,3.0,13.0,68,0.00,,,0.00,,2013-06-13 06:44:00,
2013-06-13 01:52:00,66.0,56.0,29.69,SE,134,2.0,8.0,70,0.00,,,0.00,,2013-06-13 06:52:00,
2013-06-13 02:01:00,66.0,56.0,29.69,SE,134,2.0,8.0,70,0.00,,,0.00,,2013-06-13 07:01:00,
2013-06-13 02:11:00,66.0,56.0,29.69,SE,134,2.0,8.0,70,0.00,,,0.00,,2013-06-13 07:11:00,
2013-06-13 02:22:00,65.0,56.0,29.70,SE,133,3.0,8.0,72,0.00,,,0.00,,2013-06-13 07:22:00,
2013-06-13 02:33:00,65.0,56.0,29.70,SE,133,3.0,8.0,72,0.00,,,0.00,,2013-06-13 07:33:00,
2013-06-13 02:42:00,65.0,56.0,29.70,SE,133,3.0,8.0,72,0.00,,,0.00,,2013-06-13 07:42:00,
2013-06-13 02:52:00,65.0,56.0,29.70,SE,133,3.0,8.0,72,0.00,,,0.00,,2013-06-13 07:52:00,
2013-06-13 03:01:00,65.0,56.0,29.70,SE,133,3.0,8.0,72,0.00,,,0.00,,2013-06-13 08:01:00,
2013-06-13 03:22:00,61.0,54.0,29.71,ESE,123,0.0,3.0,79,0.00,,,0.00,,2013-06-13 08:22:00,
2013-06-13 03:32:00,61.0,54.0,29.71,ESE,123,0.0,3.0,79,0.00,,,0.00,,2013-06-13 08:32:00,
2013-06-13 03:43:00,61.0,54.0,29.71,ESE,123,0.0,3.0,79,0.00,,,0.00,,2013-06-13 08:43:00,
2013-06-13 03:52:00,59.0,54.0,29.71,ESE,123,0.0,2.0,84,0.00,,,0.00,,2013-06-13 08:52:00,
2013-06-13 04:02:00,59.0,54.0,29.71,ESE,123,0.0,2.0,84,0.00,,,0.00,,2013-06-13 09:02:00,
2013-06-13 04:11:00,59.0,54.0,29.71,ESE,123,0.0,2.0,84,0.00,,,0.00,,2013-06-13 09:11:00,
2013-06-13 04:22:00,57.0,53.0,29.72,ESE,123,0.0,1.0,86,0.00,,,0.00,,2013-06-13 09:22:00,
2013-06-13 04:32:00,57.0,53.0,29.72,ESE,123,0.0,1.0,86,0.00,,,0.00,,2013-06-13 09:32:00,
2013-06-13 04:42:00,57.0,53.0,29.72,ESE,123,0.0,1.0,86,0.00,,,0.00,,2013-06-13 09:42:00,
2013-06-13 04:52:00,57.0,54.0,29.71,ESE,123,0.0,2.0,89,0.00,,,0.00,,2013-06-13 09:52:00,
2013-06-13 05:01:00,57.0,54.0,29.71,ESE,123,0.0,2.0,89,0.00,,,0.00,,2013-06-13 10:01:00,
2013-06-13 05:11:00,57.0,54.0,29.71,ESE,123,0.0,2.0,89,0.00,,,0.00,,2013-06-13 10:11:00,
2013-06-13 05:22:00,56.0,53.0,29.71,ESE,123,0.0,1.0,89,0.00,,,0.00,,2013-06-13 10:22:00,
2013-06-13 05:33:00,56.0,53.0,29.71,ESE,123,0.0,1.0,89,0.00,,,0.00,,2013-06-13 10:33:00,
2013-06-13 05:43:00,56.0,53.0,29.71,ESE,123,0.0,1.0,89,0.00,,,0.00,,2013-06-13 10:43:00,
2013-06-13 05:53:00,56.0,53.0,29.72,ESE,123,0.0,1.0,90,0.00,,,0.00,,2013-06-13 10:53:00,
2013-06-13 06:02:00,56.0,53.0,29.72,ESE,123,0.0,1.0,90,0.00,,,0.00,,2013-06-13 11:02:00,
2013-06-13 06:11:00,56.0,53.0,29.72,ESE,123,0.0,1.0,90,0.00,,,0.00,,2013-06-13 11:11:00,
2013-06-13 06:23:00,55.0,52.0,29.74,ESE,123,0.0,1.0,91,0.00,,,0.00,,2013-06-13 11:23:00,
2013-06-13 06:32:00,55.0,52.0,29.74,ESE,123,0.0,1.0,91,0.00,,,0.00,,2013-06-13 11:32:00,
2013-06-13 07:01:00,55.0,53.0,29.75,ESE,123,0.0,1.0,92,0.00,,,0.00,,2013-06-13 12:01:00,
2013-06-13 07:34:00,55.0,53.0,29.76,ESE,123,0.0,2.0,92,0.00,,,0.00,,2013-06-13 12:34:00,
2013-06-13 07:43:00,55.0,53.0,29.76,ESE,123,0.0,2.0,92,0.00,,,0.00,,2013-06-13 12:43:00,
2013-06-13 07:52:00,57.0,55.0,29.78,ESE,123,0.0,1.0,94,0.00,,,0.00,,2013-06-13 12:52:00,
2013-06-13 08:01:00,57.0,55.0,29.78,ESE,123,0.0,1.0,94,0.00,,,0.00,,2013-06-13 13:01:00,
2013-06-13 08:11:00,57.0,55.0,29.78,ESE,123,0.0,1.0,94,0.00,,,0.00,,2013-06-13 13:11:00,
2013-06-13 08:21:00,62.0,60.0,29.75,ESE,121,0.0,1.0,93,0.00,,,0.00,,2013-06-13 13:21:00,
2013-06-13 08:32:00,62.0,60.0,29.75,ESE,121,0.0,1.0,93,0.00,,,0.00,,2013-06-13 13:32:00,
2013-06-13 08:43:00,62.0,60.0,29.75,ESE,121,0.0,1.0,93,0.00,,,0.00,,2013-06-13 13:43:00,
2013-06-13 08:53:00,68.0,59.0,29.75,SSE,164,0.0,1.0,73,0.00,,,0.00,,2013-06-13 13:53:00,
2013-06-13 09:02:00,68.0,59.0,29.75,SSE,164,0.0,1.0,73,0.00,,,0.00,,2013-06-13 14:02:00,
2013-06-13 09:11:00,68.0,59.0,29.75,SSE,164,0.0,1.0,73,0.00,,,0.00,,2013-06-13 14:11:00,
2013-06-13 09:22:00,68.0,59.0,29.75,SSE,164,0.0,1.0,73,0.00,,,0.00,,2013-06-13 14:22:00,
2013-06-13 09:33:00,68.0,59.0,29.75,SSE,164,0.0,1.0,73,0.00,,,0.00,,2013-06-13 14:33:00,
2013-06-13 09:53:00,72.0,56.0,29.75,ESE,112,5.0,9.0,57,0.00,,,0.00,,2013-06-13 14:53:00,
2013-06-13 10:01:00,72.0,56.0,29.75,ESE,112,5.0,9.0,57,0.00,,,0.00,,2013-06-13 15:01:00,
2013-06-13 10:12:00,72.0,56.0,29.75,ESE,112,5.0,9.0,57,0.00,,,0.00,,2013-06-13 15:12:00,
2013-06-13 10:22:00,74.0,57.0,29.74,SE,126,2.0,13.0,56,0.00,,,0.00,,2013-06-13 15:22:00,
2013-06-13 10:33:00,74.0,57.0,29.74,SE,126,2.0,13.0,56,0.00,,,0.00,,2013-06-13 15:33:00,
2013-06-13 10:43:00,74.0,57.0,29.74,SE,126,2.0,13.0,56,0.00,,,0.00,,2013-06-13 15:43:00,
2013-06-13 10:53:00,75.0,56.0,29.74,East,80,5.0,10.0,52,0.00,,,0.00,,2013-06-13 15:53:00,
2013-06-13 11:01:00,75.0,56.0,29.74,East,80,5.0,10.0,52,0.00,,,0.00,,2013-06-13 16:01:00,
2013-06-13 11:12:00,75.0,56.0,29.74,East,80,5.0,10.0,52,0.00,,,0.00,,2013-06-13 16:12:00,
2013-06-13 11:22:00,75.0,56.0,29.76,SE,141,1.0,8.0,51,0.00,,,0.00,,2013-06-13 16:22:00,
2013-06-13 11:33:00,75.0,56.0,29.76,SE,141,1.0,8.0,51,0.00,,,0.00,,2013-06-13 16:33:00,
2013-06-13 11:43:00,75.0,56.0,29.76,SE,141,1.0,8.0,51,0.00,,,0.00,,2013-06-13 16:43:00,
2013-06-13 11:53:00,78.0,56.0,29.74,ENE,59,3.0,8.0,47,0.00,,,0.00,,2013-06-13 16:53:00,
2013-06-13 12:02:00,78.0,56.0,29.74,ENE,59,3.0,8.0,47,0.00,,,0.00,,2013-06-13 17:02:00,
2013-06-13 12:11:00,78.0,56.0,29.74,ENE,59,3.0,8.0,47,0.00,,,0.00,,2013-06-13 17:11:00,
2013-06-13 12:24:00,76.0,56.0,29.75,SE,133,2.0,8.0,50,0.00,,,0.00,,2013-06-13 17:24:00,
2013-06-13 12:32:00,76.0,56.0,29.75,SE,133,2.0,8.0,50,0.00,,,0.00,,2013-06-13 17:32:00,
2013-06-13 12:43:00,76.0,56.0,29.75,SE,133,2.0,8.0,50,0.00,,,0.00,,2013-06-13 17:43:00,
2013-06-13 12:53:00,76.0,55.0,29.77,SW,233,1.0,12.0,48,0.00,,,0.00,,2013-06-13 17:53:00,
2013-06-13 13:02:00,76.0,55.0,29.77,SW,233,1.0,12.0,48,0.00,,,0.00,,2013-06-13 18:02:00,
2013-06-13 13:11:00,76.0,55.0,29.77,SW,233,1.0,12.0,48,0.00,,,0.00,,2013-06-13 18:11:00,
2013-06-13 13:22:00,76.0,54.0,29.75,South,176,3.0,12.0,46,0.00,,,0.00,,2013-06-13 18:22:00,
2013-06-13 13:33:00,76.0,54.0,29.75,South,176,3.0,12.0,46,0.00,,,0.00,,2013-06-13 18:33:00,
2013-06-13 13:43:00,76.0,54.0,29.75,South,176,3.0,12.0,46,0.00,,,0.00,,2013-06-13 18:43:00,
2013-06-13 13:52:00,76.0,54.0,29.75,South,176,3.0,12.0,46,0.00,,,0.00,,2013-06-13 18:52:00,
2013-06-13 14:01:00,76.0,54.0,29.75,South,176,3.0,12.0,46,0.00,,,0.00,,2013-06-13 19:01:00,
2013-06-13 14:33:00,63.0,59.0,29.85,NNW,346,1.0,9.0,86,0.01,,,0.01,,2013-06-13 19:33:00,
2013-06-13 14:43:00,63.0,59.0,29.85,NNW,346,1.0,9.0,86,0.01,,,0.01,,2013-06-13 19:43:00,
2013-06-13 14:53:00,62.0,58.0,29.88,NNE,27,0.0,8.0,88,0.00,,,0.01,,2013-06-13 19:53:00,
2013-06-13 15:01:00,62.0,58.0,29.88,NNE,27,0.0,8.0,88,0.00,,,0.01,,2013-06-13 20:01:00,
2013-06-13 15:11:00,62.0,58.0,29.88,NNE,27,0.0,8.0,88,0.00,,,0.01,,2013-06-13 20:11:00,
2013-06-13 15:22:00,61.0,58.0,29.86,SE,134,0.0,3.0,89,0.00,,,0.01,,2013-06-13 20:22:00,
2013-06-13 15:32:00,61.0,58.0,29.86,SE,134,0.0,3.0,89,0.00,,,0.01,,2013-06-13 20:32:00,
2013-06-13 15:44:00,61.0,58.0,29.86,SE,134,0.0,3.0,89,0.00,,,0.01,,2013-06-13 20:44:00,
2013-06-13 15:53:00,61.0,58.0,29.86,SE,134,0.0,3.0,89,0.00,,,0.01,,2013-06-13 20:53:00,
2013-06-13 16:02:00,61.0,58.0,29.86,SE,134,0.0,3.0,89,0.00,,,0.01,,2013-06-13 21:02:00,
2013-06-13 16:22:00,63.0,59.0,29.87,SW,234,0.0,3.0,88,0.00,,,0.01,,2013-06-13 21:22:00,
2013-06-13 16:34:00,63.0,59.0,29.87,SW,234,0.0,3.0,88,0.00,,,0.01,,2013-06-13 21:34:00,
2013-06-13 16:43:00,63.0,59.0,29.87,SW,234,0.0,3.0,88,0.00,,,0.01,,2013-06-13 21:43:00,
2013-06-13 16:52:00,64.0,59.0,29.86,SW,230,0.0,3.0,85,0.00,,,0.01,,2013-06-13 21:52:00,
2013-06-13 17:02:00,64.0,59.0,29.86,SW,230,0.0,3.0,85,0.00,,,0.01,,2013-06-13 22:02:00,
2013-06-13 17:11:00,64.0,59.0,29.86,SW,230,0.0,3.0,85,0.00,,,0.01,,2013-06-13 22:11:00,
2013-06-13 17:22:00,65.0,59.0,29.87,South,174,0.0,1.0,82,0.00,,,0.01,,2013-06-13 22:22:00,
2013-06-13 17:32:00,65.0,59.0,29.87,South,174,0.0,1.0,82,0.00,,,0.01,,2013-06-13 22:32:00,
2013-06-13 17:43:00,65.0,59.0,29.87,South,174,0.0,1.0,82,0.00,,,0.01,,2013-06-13 22:43:00,
2013-06-13 17:52:00,65.0,59.0,29.85,SSW,210,0.0,1.0,82,0.00,,,0.01,,2013-06-13 22:52:00,
2013-06-13 18:02:00,65.0,59.0,29.85,SSW,210,0.0,1.0,82,0.00,,,0.01,,2013-06-13 23:02:00,
2013-06-13 18:11:00,65.0,59.0,29.85,SSW,210,0.0,1.0,82,0.00,,,0.01,,2013-06-13 23:11:00,
2013-06-13 18:22:00,66.0,61.0,29.82,SE,145,0.0,1.0,83,0.00,,,0.01,,2013-06-13 23:22:00,
2013-06-13 18:32:00,66.0,61.0,29.82,SE,145,0.0,1.0,83,0.00,,,0.01,,2013-06-13 23:32:00,
2013-06-13 18:43:00,66.0,61.0,29.82,SE,145,0.0,1.0,83,0.00,,,0.01,,2013-06-13 23:43:00,
2013-06-13 18:52:00,66.0,57.0,29.81,SSW,193,4.0,10.0,74,0.00,,,0.01,,2013-06-13 23:52:00,
2013-06-13 19:01:00,66.0,57.0,29.81,SSW,193,4.0,10.0,74,0.00,,,0.01,,2013-06-14 00:01:00,
2013-06-13 19:11:00,66.0,57.0,29.81,SSW,193,4.0,10.0,74,0.00,,,0.01,,2013-06-14 00:11:00,
2013-06-13 19:22:00,64.0,59.0,29.83,South,178,1.0,12.0,83,0.00,,,0.01,,2013-06-14 00:22:00,
2013-06-13 19:34:00,64.0,59.0,29.83,South,178,1.0,12.0,83,0.00,,,0.01,,2013-06-14 00:34:00,
2013-06-13 19:43:00,64.0,59.0,29.83,South,178,1.0,12.0,83,0.00,,,0.01,,2013-06-14 00:43:00,
2013-06-13 19:53:00,63.0,59.0,29.78,SSW,212,4.0,12.0,87,0.00,,,0.01,,2013-06-14 00:53:00,
2013-06-13 20:01:00,63.0,59.0,29.78,SSW,212,4.0,12.0,87,0.00,,,0.01,,2013-06-14 01:01:00,
2013-06-13 20:11:00,63.0,59.0,29.78,SSW,212,4.0,12.0,87,0.00,,,0.01,,2013-06-14 01:11:00,
2013-06-13 20:22:00,62.0,57.0,29.79,WNW,299,5.0,15.0,83,0.00,,,0.01,,2013-06-14 01:22:00,
2013-06-13 20:32:00,62.0,57.0,29.79,WNW,299,5.0,15.0,83,0.00,,,0.01,,2013-06-14 01:32:00,
2013-06-13 20:43:00,62.0,57.0,29.79,WNW,299,5.0,15.0,83,0.00,,,0.01,,2013-06-14 01:43:00,
2013-06-13 20:52:00,61.0,55.0,29.77,NNE,27,2.0,17.0,81,0.00,,,0.01,,2013-06-14 01:52:00,
2013-06-13 21:02:00,61.0,55.0,29.77,NNE,27,2.0,17.0,81,0.00,,,0.01,,2013-06-14 02:02:00,
2013-06-13 21:11:00,61.0,55.0,29.77,NNE,27,2.0,17.0,81,0.00,,,0.01,,2013-06-14 02:11:00,
2013-06-13 21:22:00,62.0,53.0,29.73,NNW,339,2.0,17.0,72,0.00,,,0.01,,2013-06-14 02:22:00,
2013-06-13 21:32:00,62.0,53.0,29.73,NNW,339,2.0,17.0,72,0.00,,,0.01,,2013-06-14 02:32:00,
2013-06-13 21:43:00,62.0,53.0,29.73,NNW,339,2.0,17.0,72,0.00,,,0.01,,2013-06-14 02:43:00,
2013-06-13 21:53:00,63.0,51.0,29.71,SE,141,0.0,13.0,66,0.00,,,0.01,,2013-06-14 02:53:00,
2013-06-13 22:02:00,63.0,51.0,29.71,SE,141,0.0,13.0,66,0.00,,,0.01,,2013-06-14 03:02:00,
2013-06-13 22:11:00,63.0,51.0,29.71,SE,141,0.0,13.0,66,0.00,,,0.01,,2013-06-14 03:11:00,
2013-06-13 22:22:00,61.0,53.0,29.72,East,89,2.0,6.0,75,0.00,,,0.01,,2013-06-14 03:22:00,
2013-06-13 22:34:00,61.0,53.0,29.72,East,89,2.0,6.0,75,0.00,,,0.01,,2013-06-14 03:34:00,
2013-06-13 22:43:00,61.0,53.0,29.72,East,89,2.0,6.0,75,0.00,,,0.01,,2013-06-14 03:43:00,
2013-06-13 22:53:00,61.0,53.0,29.72,East,85,0.0,5.0,76,0.00,,,0.01,,2013-06-14 03:53:00,
2013-06-13 23:01:00,61.0,53.0,29.72,East,85,0.0,5.0,76,0.00,,,0.01,,2013-06-14 04:01:00,
2013-06-13 23:12:00,61.0,53.0,29.72,East,85,0.0,5.0,76,0.00,,,0.01,,2013-06-14 04:12:00,
2013-06-13 23:22:00,60.0,54.0,29.75,East,85,1.0,3.0,81,0.00,,,0.01,,2013-06-14 04:22:00,
2013-06-13 23:33:00,60.0,54.0,29.75,East,85,1.0,3.0,81,0.00,,,0.01,,2013-06-14 04:33:00,
2013-06-13 23:43:00,60.0,54.0,29.75,East,85,1.0,3.0,81,0.00,,,0.01,,2013-06-14 04:43:00,
2013-06-13 23:53:00,63.0,53.0,29.75,SE,130,3.0,13.0,69,0.00,,,0.01,,2013-06-14 04:53:00,